Time;durP1;ratioP1;P1;durP2;ratioP2;P2;SDS_P1;SDS_P2;PMS_P1;PMS_P2;Temp;Humidity;BMP_temperature;BMP_pressure;BME280_temperature;BME280_humidity;BME280_pressure;Samples;Min_cycle;Max_cycle;Signal;HPM_P1;HPM_P2
2022/02/02 00:01:19;;;;;;;86.47;79.63;;;7.80;99.90;;;;;;4337454;33;20181;-61
2022/02/02 00:03:51;;;;;;;82.27;73.17;;;8.00;99.90;;;;;;4352118;32;20549;-61
2022/02/02 00:06:22;;;;;;;89.07;81.57;;;8.20;99.90;;;;;;4343479;33;20190;-62
2022/02/02 00:08:57;;;;;;;92.93;84.43;;;8.20;99.90;;;;;;4343666;33;20192;-61
2022/02/02 00:17:02;;;;;;;96.83;88.80;;;8.30;99.90;;;;;;4342021;33;20189;-63
2022/02/02 00:19:40;;;;;;;100.93;91.47;;;8.20;99.90;;;;;;4353065;32;20213;-63
2022/02/02 00:22:12;;;;;;;94.30;85.53;;;8.20;99.90;;;;;;4390192;32;20449;-65
2022/02/02 00:24:56;;;;;;;108.87;100.03;;;8.10;99.90;;;;;;4384708;32;20225;-66
2022/02/02 00:27:24;;;;;;;98.83;90.67;;;8.00;99.90;;;;;;4381631;32;20213;-63
2022/02/02 00:29:55;;;;;;;105.00;97.10;;;8.00;99.90;;;;;;4390009;32;20593;-63
2022/02/02 00:32:34;;;;;;;105.17;97.20;;;7.90;99.90;;;;;;4388610;32;20481;-63
2022/02/02 00:35:01;;;;;;;96.73;88.50;;;7.90;99.90;;;;;;4383598;32;20148;-66
2022/02/02 00:37:28;;;;;;;111.37;101.97;;;8.00;99.90;;;;;;4380407;32;20141;-64
2022/02/02 00:39:56;;;;;;;97.13;90.00;;;8.20;99.90;;;;;;4389972;32;20160;-63
2022/02/02 00:42:29;;;;;;;101.93;94.50;;;8.10;99.90;;;;;;4390289;32;20182;-67
2022/02/02 00:44:58;;;;;;;97.47;89.93;;;8.10;99.90;;;;;;4389924;32;20145;-67
2022/02/02 00:47:26;;;;;;;101.53;93.73;;;8.10;99.90;;;;;;4390555;32;20217;-64
2022/02/02 00:49:54;;;;;;;97.27;89.30;;;8.00;99.90;;;;;;4388107;32;20188;-67
2022/02/02 00:52:25;;;;;;;103.47;94.00;;;7.80;99.90;;;;;;4376589;32;20204;-63
2022/02/02 00:54:51;;;;;;;100.57;92.93;;;7.80;99.90;;;;;;4385537;32;20203;-63
2022/02/02 00:57:27;;;;;;;102.47;93.87;;;7.70;99.90;;;;;;4378526;32;20153;-63
2022/02/02 00:59:54;;;;;;;100.27;92.27;;;7.60;99.90;;;;;;4377991;32;20137;-63
2022/02/02 01:02:21;;;;;;;99.30;90.33;;;7.50;99.90;;;;;;4394201;32;20258;-63
2022/02/02 01:04:48;;;;;;;104.13;95.83;;;7.60;99.90;;;;;;4404426;32;20152;-63
2022/02/02 01:07:21;;;;;;;103.80;95.47;;;7.60;99.90;;;;;;4379207;32;20149;-63
2022/02/02 01:09:54;;;;;;;100.63;93.43;;;7.60;99.90;;;;;;4378888;32;20133;-63
2022/02/02 01:12:45;;;;;;;108.97;100.87;;;7.60;99.90;;;;;;4389825;32;20477;-63
2022/02/02 01:18:27;;;;;;;109.87;102.07;;;7.60;99.90;;;;;;4385105;32;20148;-63
2022/02/02 01:20:58;;;;;;;101.17;93.43;;;7.60;99.90;;;;;;4379021;32;20233;-63
2022/02/02 01:28:55;;;;;;;106.27;97.23;;;7.60;99.90;;;;;;4338663;33;20242;-63
2022/02/02 01:31:24;;;;;;;110.17;102.60;;;7.60;99.90;;;;;;4345613;33;20149;-63
2022/02/02 01:33:51;;;;;;;108.80;100.17;;;7.50;99.90;;;;;;4345537;33;20165;-62
2022/02/02 01:36:18;;;;;;;110.87;101.57;;;7.50;99.90;;;;;;4343543;33;20534;-63
2022/02/02 01:38:47;;;;;;;100.97;91.93;;;7.60;99.90;;;;;;4347140;33;20141;-63
2022/02/02 01:41:21;;;;;;;98.20;89.63;;;7.40;99.90;;;;;;4345592;33;20185;-67
2022/02/02 01:43:56;;;;;;;105.53;95.87;;;7.40;99.90;;;;;;4336615;33;20210;-66
2022/02/02 01:46:28;;;;;;;107.70;98.37;;;7.40;99.90;;;;;;4334046;33;20161;-63
2022/02/02 01:49:01;;;;;;;107.90;99.43;;;7.30;99.90;;;;;;4356115;33;20148;-64
2022/02/02 01:51:50;;;;;;;107.33;99.23;;;7.30;99.90;;;;;;4361372;32;20171;-64
2022/02/02 01:54:32;;;;;;;96.03;87.43;;;7.30;99.90;;;;;;4353258;32;20161;-64
2022/02/02 01:57:02;;;;;;;99.77;90.67;;;7.40;99.90;;;;;;4339871;33;20198;-67
2022/02/02 01:59:39;;;;;;;107.30;99.07;;;7.40;99.90;;;;;;4331047;33;20162;-65
2022/02/02 02:02:08;;;;;;;102.30;93.87;;;7.30;99.90;;;;;;4331861;33;20477;-64
2022/02/02 02:04:35;;;;;;;112.43;103.10;;;7.30;99.90;;;;;;4375965;32;20186;-64
2022/02/02 02:07:02;;;;;;;101.17;92.87;;;7.30;99.90;;;;;;4380159;32;20238;-65
2022/02/02 02:09:30;;;;;;;93.77;86.27;;;7.30;99.90;;;;;;4376886;32;20220;-67
2022/02/02 02:12:01;;;;;;;104.67;96.23;;;7.50;99.90;;;;;;4376988;32;20145;-63
2022/02/02 02:14:48;;;;;;;97.63;89.53;;;7.60;99.90;;;;;;4377059;32;20186;-63
2022/02/02 02:17:18;;;;;;;99.57;92.20;;;7.60;99.90;;;;;;4378114;32;20161;-62
2022/02/02 02:19:50;;;;;;;106.33;97.93;;;7.60;99.90;;;;;;4376880;32;20184;-62
2022/02/02 02:22:20;;;;;;;171.20;159.07;;;7.60;99.90;;;;;;4392485;32;20471;-62
2022/02/02 02:24:48;;;;;;;106.10;97.60;;;7.70;99.90;;;;;;4406480;32;20140;-61
2022/02/02 02:27:15;;;;;;;98.73;89.70;;;7.80;99.90;;;;;;4400571;32;20168;-61
2022/02/02 02:29:58;;;;;;;101.10;92.77;;;8.00;99.90;;;;;;4390632;32;20145;-63
2022/02/02 02:35:38;;;;;;;99.30;91.77;;;7.90;99.90;;;;;;4368257;32;20269;-62
2022/02/02 02:57:27;;;;;;;99.27;91.57;;;7.90;99.90;;;;;;4390744;32;20215;-63
2022/02/02 03:00:21;;;;;;;101.90;93.43;;;7.90;99.90;;;;;;4387293;32;20172;-63
2022/02/02 03:03:27;;;;;;;105.10;95.67;;;7.90;99.90;;;;;;4350854;32;1669532;-62
2022/02/02 03:30:52;;;;;;;110.40;102.53;;;8.00;99.90;;;;;;4343822;33;20206;-66
2022/02/02 03:55:37;;;;;;;100.67;92.83;;;8.10;99.90;;;;;;4285817;33;20175;-63
2022/02/02 03:58:22;;;;;;;98.10;90.23;;;8.00;99.90;;;;;;4285585;33;20222;-63
2022/02/02 04:03:54;;;;;;;106.03;97.70;;;8.20;99.90;;;;;;4285946;33;20638;-63
2022/02/02 04:06:23;;;;;;;109.47;100.63;;;8.10;99.90;;;;;;4285063;33;20241;-63
2022/02/02 04:08:50;;;;;;;98.70;90.43;;;8.00;99.90;;;;;;4285422;33;20167;-60
2022/02/02 04:11:27;;;;;;;99.67;91.07;;;8.20;99.90;;;;;;4283084;33;20170;-62
2022/02/02 04:14:55;;;;;;;96.83;89.57;;;8.10;99.90;;;;;;4313858;33;20165;-61
2022/02/02 04:51:20;;;;;;;96.00;88.30;;;8.00;99.90;;;;;;4257775;33;20258;-64
2022/02/02 04:53:46;;;;;;;91.47;84.37;;;8.00;99.90;;;;;;4252084;33;20520;-61
2022/02/02 04:56:27;;;;;;;95.70;87.70;;;7.90;99.90;;;;;;4246796;33;20534;-62
2022/02/02 04:59:05;;;;;;;92.23;83.63;;;7.90;99.90;;;;;;4297335;33;20164;-62
2022/02/02 05:02:15;;;;;;;94.13;86.30;;;7.90;99.90;;;;;;4330430;32;20145;-64
2022/02/02 05:05:12;;;;;;;87.30;80.07;;;8.00;99.90;;;;;;4404658;32;20233;-61
2022/02/02 05:07:46;;;;;;;90.27;82.67;;;7.90;99.90;;;;;;4408321;32;20186;-62
2022/02/02 05:10:22;;;;;;;89.40;81.93;;;7.80;99.90;;;;;;4409509;32;20200;-61
2022/02/02 05:19:02;;;;;;;89.47;81.80;;;7.70;99.90;;;;;;4384355;32;20157;-61
2022/02/02 05:21:57;;;;;;;92.03;84.93;;;7.80;99.90;;;;;;4371063;32;20249;-61
2022/02/02 05:41:35;;;;;;;98.40;90.57;;;7.60;99.90;;;;;;4391107;32;20602;-62
2022/02/02 05:44:26;;;;;;;91.23;82.57;;;7.50;99.90;;;;;;4375068;32;20179;-62
2022/02/02 05:49:58;;;;;;;91.50;84.87;;;7.50;99.90;;;;;;4376051;32;20475;-62
2022/02/02 05:52:26;;;;;;;93.87;87.10;;;7.60;99.90;;;;;;4372202;32;20165;-62
2022/02/02 05:54:53;;;;;;;99.00;91.87;;;7.60;99.90;;;;;;4393753;32;20167;-62
2022/02/02 05:57:26;;;;;;;93.53;86.37;;;7.60;99.90;;;;;;4422954;32;20152;-62
2022/02/02 05:59:58;;;;;;;93.00;85.23;;;7.50;99.90;;;;;;4422475;32;20162;-62
2022/02/02 06:02:32;;;;;;;100.10;92.80;;;7.60;99.90;;;;;;4414956;32;20194;-62
2022/02/02 06:05:05;;;;;;;102.67;94.83;;;7.50;99.90;;;;;;4408005;32;20147;-62
2022/02/02 06:07:35;;;;;;;103.70;96.60;;;7.40;99.90;;;;;;4407284;32;20544;-62
2022/02/02 06:10:03;;;;;;;92.60;85.70;;;7.30;99.90;;;;;;4400138;32;20145;-62
2022/02/02 06:12:34;;;;;;;95.27;88.00;;;7.30;99.90;;;;;;4401684;32;20164;-61
2022/02/02 06:15:09;;;;;;;94.53;86.87;;;7.20;99.90;;;;;;4393603;32;20140;-61
2022/02/02 06:17:40;;;;;;;96.80;89.43;;;7.10;99.90;;;;;;4397198;32;20147;-62
2022/02/02 06:20:12;;;;;;;102.93;96.50;;;7.00;99.90;;;;;;4409004;32;20199;-62
2022/02/02 06:22:43;;;;;;;88.70;81.77;;;7.00;99.90;;;;;;4405298;32;20209;-62
2022/02/02 06:25:21;;;;;;;99.50;92.03;;;7.10;99.90;;;;;;4408638;32;20631;-61
2022/02/02 06:27:59;;;;;;;104.73;97.63;;;7.00;99.90;;;;;;4406342;32;20195;-61
2022/02/02 06:30:30;;;;;;;103.90;96.80;;;7.00;99.90;;;;;;4411925;32;20219;-61
2022/02/02 06:33:04;;;;;;;105.13;98.03;;;7.10;99.90;;;;;;4402371;32;20140;-61
2022/02/02 06:35:32;;;;;;;99.67;92.40;;;7.10;99.90;;;;;;4411814;32;20238;-61
2022/02/02 06:37:59;;;;;;;97.17;89.97;;;6.90;99.90;;;;;;4409047;32;20144;-61
2022/02/02 06:40:27;;;;;;;96.20;89.13;;;6.90;99.90;;;;;;4409389;32;20203;-61
2022/02/02 06:42:55;;;;;;;97.13;89.13;;;6.90;99.90;;;;;;4409921;32;20163;-62
2022/02/02 06:45:23;;;;;;;110.77;102.80;;;6.90;99.90;;;;;;4410645;32;20222;-61
2022/02/02 06:47:51;;;;;;;102.57;95.27;;;6.90;99.90;;;;;;4412307;32;20448;-61
2022/02/02 06:50:23;;;;;;;102.00;94.37;;;7.00;99.90;;;;;;4411794;32;20565;-61
2022/02/02 06:53:03;;;;;;;106.37;98.17;;;7.10;99.90;;;;;;4413764;32;20156;-61
2022/02/02 06:55:39;;;;;;;96.47;88.90;;;7.10;99.90;;;;;;4409118;32;20143;-61
2022/02/02 06:58:23;;;;;;;100.37;92.73;;;7.20;99.90;;;;;;4405525;32;20486;-61
2022/02/02 07:01:04;;;;;;;104.80;97.17;;;7.30;99.90;;;;;;4409809;32;20238;-62
2022/02/02 07:03:54;;;;;;;98.77;91.67;;;7.30;99.90;;;;;;4409238;32;20143;-62
2022/02/02 07:06:37;;;;;;;94.67;86.77;;;7.30;99.90;;;;;;4411957;32;20141;-62
2022/02/02 07:09:24;;;;;;;89.60;81.10;;;7.30;99.90;;;;;;4412268;32;20154;-62
2022/02/02 07:12:03;;;;;;;82.47;76.17;;;7.30;99.90;;;;;;4412337;32;20488;-62
2022/02/02 07:14:52;;;;;;;83.47;75.80;;;7.30;99.90;;;;;;4399196;32;20591;-62
2022/02/02 07:17:36;;;;;;;83.43;76.33;;;7.20;99.90;;;;;;4411675;32;20157;-62
2022/02/02 07:20:12;;;;;;;89.07;81.10;;;7.30;99.90;;;;;;4403962;32;20145;-62
2022/02/02 07:23:14;;;;;;;86.77;79.37;;;7.20;99.90;;;;;;4403208;32;20151;-62
2022/02/02 07:26:07;;;;;;;87.17;79.93;;;7.30;99.90;;;;;;4397098;32;20191;-62
2022/02/02 07:28:41;;;;;;;86.17;79.50;;;7.20;99.90;;;;;;4404859;32;20579;-62
2022/02/02 07:31:24;;;;;;;81.20;73.70;;;7.20;99.90;;;;;;4390708;32;20129;-62
2022/02/02 07:34:02;;;;;;;87.30;79.10;;;7.20;99.90;;;;;;4390860;32;20195;-62
2022/02/02 07:36:36;;;;;;;93.80;85.23;;;7.20;99.90;;;;;;4403138;32;20429;-62
2022/02/02 07:39:11;;;;;;;90.73;82.57;;;7.10;99.90;;;;;;4406734;32;20139;-61
2022/02/02 07:41:40;;;;;;;95.83;87.53;;;7.20;99.90;;;;;;4405346;32;20223;-61
2022/02/02 07:44:13;;;;;;;91.20;84.23;;;7.30;99.90;;;;;;4400950;32;20492;-62
2022/02/02 07:46:45;;;;;;;90.00;81.10;;;7.40;99.90;;;;;;4393274;32;20191;-61
2022/02/02 07:49:17;;;;;;;89.57;81.13;;;7.40;99.90;;;;;;4392967;32;20195;-61
2022/02/02 07:51:51;;;;;;;87.00;79.97;;;7.50;99.90;;;;;;4394512;32;20174;-61
2022/02/02 07:54:40;;;;;;;95.87;87.77;;;7.50;99.90;;;;;;4386846;32;20203;-60
2022/02/02 07:57:14;;;;;;;86.23;78.27;;;7.50;99.90;;;;;;4384007;32;20236;-61
2022/02/02 07:59:53;;;;;;;85.83;77.40;;;7.50;99.90;;;;;;4395076;32;20221;-61
2022/02/02 08:02:27;;;;;;;82.40;74.57;;;7.50;99.90;;;;;;4391315;32;20148;-62
2022/02/02 08:04:55;;;;;;;85.43;77.17;;;7.60;99.90;;;;;;4390466;32;20182;-62
2022/02/02 08:07:24;;;;;;;86.33;78.43;;;7.60;99.90;;;;;;4392092;32;20477;-61
2022/02/02 08:10:05;;;;;;;89.27;81.27;;;7.70;99.90;;;;;;4391004;32;20471;-61
2022/02/02 08:12:41;;;;;;;87.43;79.53;;;7.70;99.90;;;;;;4392173;32;20140;-61
2022/02/02 08:15:10;;;;;;;83.60;76.63;;;7.70;99.90;;;;;;4390572;32;20136;-62
2022/02/02 08:17:39;;;;;;;90.47;81.83;;;7.70;99.90;;;;;;4391700;32;20178;-61
2022/02/02 08:20:13;;;;;;;85.80;79.07;;;7.70;99.90;;;;;;4390298;32;20185;-62
2022/02/02 08:22:42;;;;;;;91.93;83.43;;;7.80;99.90;;;;;;4390500;32;20163;-62
2022/02/02 08:25:11;;;;;;;82.23;74.43;;;7.90;99.90;;;;;;4390437;32;20548;-61
2022/02/02 08:27:40;;;;;;;78.30;71.47;;;8.00;99.90;;;;;;4403350;32;20208;-61
2022/02/02 08:30:15;;;;;;;81.73;74.90;;;8.10;99.90;;;;;;4406862;32;20140;-62
2022/02/02 08:32:50;;;;;;;79.33;72.83;;;8.20;99.90;;;;;;4406077;32;20549;-62
2022/02/02 08:35:19;;;;;;;83.53;77.13;;;8.30;99.90;;;;;;4405476;32;20144;-61
2022/02/02 08:37:53;;;;;;;83.47;76.47;;;8.40;99.90;;;;;;4379412;32;20152;-62
2022/02/02 08:40:25;;;;;;;87.87;80.17;;;8.20;99.90;;;;;;4390140;32;20137;-65
2022/02/02 08:42:55;;;;;;;98.73;91.17;;;8.10;99.90;;;;;;4391970;32;20145;-63
2022/02/02 08:45:25;;;;;;;92.70;85.37;;;8.10;99.90;;;;;;4390421;32;20136;-62
2022/02/02 08:47:59;;;;;;;80.27;72.93;;;8.10;99.90;;;;;;4391976;32;20187;-62
2022/02/02 08:50:31;;;;;;;79.80;73.47;;;8.10;99.90;;;;;;4391274;32;20160;-62
2022/02/02 08:53:13;;;;;;;80.73;73.27;;;8.10;99.90;;;;;;4390198;32;20136;-62
2022/02/02 08:58:31;;;;;;;84.93;77.43;;;8.10;99.90;;;;;;4405088;32;20160;-61
2022/02/02 09:01:00;;;;;;;84.30;76.97;;;8.20;99.90;;;;;;4405817;32;20185;-62
2022/02/02 09:06:15;;;;;;;81.10;73.50;;;8.20;99.90;;;;;;4405094;32;20150;-64
2022/02/02 09:08:44;;;;;;;81.03;74.40;;;8.30;99.90;;;;;;4391526;32;20163;-62
2022/02/02 09:25:12;;;;;;;73.27;66.10;;;8.40;99.90;;;;;;4375624;32;20172;-65
2022/02/02 09:36:18;;;;;;;78.87;72.47;;;8.70;99.90;;;;;;4375614;32;20479;-62
2022/02/02 09:38:51;;;;;;;81.43;73.73;;;8.80;99.90;;;;;;4373313;32;20247;-63
2022/02/02 09:41:38;;;;;;;84.57;77.73;;;8.80;99.90;;;;;;4372053;32;20156;-62
2022/02/02 09:44:08;;;;;;;77.10;70.23;;;8.90;99.90;;;;;;4360429;33;20182;-62
2022/02/02 09:46:46;;;;;;;81.07;74.43;;;8.90;99.90;;;;;;4360339;32;20521;-64
2022/02/02 09:49:22;;;;;;;85.73;78.93;;;9.10;99.90;;;;;;4361389;32;20504;-62
2022/02/02 09:51:57;;;;;;;82.40;75.00;;;9.30;99.90;;;;;;4361748;32;20623;-63
2022/02/02 09:54:31;;;;;;;90.10;82.67;;;9.20;99.90;;;;;;4360711;32;20146;-63
2022/02/02 10:00:13;;;;;;;74.73;68.00;;;9.10;99.90;;;;;;4360583;32;20223;-63
2022/02/02 10:03:02;;;;;;;77.57;71.90;;;9.10;99.90;;;;;;4385030;32;21027;-60
2022/02/02 10:05:32;;;;;;;77.30;71.20;;;9.40;99.90;;;;;;4391919;32;20139;-61
2022/02/02 10:08:25;;;;;;;77.17;70.17;;;9.50;99.90;;;;;;4392019;32;20161;-62
2022/02/02 10:11:19;;;;;;;81.93;75.27;;;9.70;99.90;;;;;;4392505;32;20555;-61
2022/02/02 10:13:52;;;;;;;91.23;83.70;;;9.80;99.90;;;;;;4404013;32;20238;-62
2022/02/02 10:16:21;;;;;;;94.17;86.77;;;9.70;99.90;;;;;;4404286;32;21195;-65
2022/02/02 10:18:54;;;;;;;92.13;85.27;;;9.70;99.90;;;;;;4404789;32;20177;-64
2022/02/02 10:21:34;;;;;;;91.93;85.63;;;9.50;99.90;;;;;;4405401;32;20519;-61
2022/02/02 10:24:03;;;;;;;91.63;83.90;;;9.30;99.90;;;;;;4403726;32;20148;-61
2022/02/02 10:26:31;;;;;;;93.33;85.87;;;9.30;99.90;;;;;;4405239;32;20217;-62
2022/02/02 10:29:09;;;;;;;88.43;82.20;;;9.20;99.90;;;;;;4405113;32;20227;-61
2022/02/02 10:31:40;;;;;;;90.83;84.27;;;9.20;99.90;;;;;;4390999;32;20191;-64
2022/02/02 10:34:13;;;;;;;83.93;77.57;;;9.20;99.90;;;;;;4401796;32;20152;-63
2022/02/02 10:36:47;;;;;;;84.37;78.30;;;9.20;99.90;;;;;;4403748;32;20169;-64
2022/02/02 10:39:20;;;;;;;96.30;88.33;;;9.30;99.90;;;;;;4391915;32;20500;-63
2022/02/02 10:41:52;;;;;;;84.10;78.07;;;9.50;99.90;;;;;;4391504;32;20198;-64
2022/02/02 10:44:26;;;;;;;86.77;80.33;;;9.70;99.90;;;;;;4392705;32;20144;-64
2022/02/02 10:46:58;;;;;;;105.13;97.27;;;9.80;99.90;;;;;;4391767;32;20506;-63
2022/02/02 10:49:33;;;;;;;100.20;94.00;;;9.90;99.90;;;;;;4391418;32;20156;-66
2022/02/02 10:52:06;;;;;;;93.13;86.60;;;10.00;99.90;;;;;;4391332;32;20152;-64
2022/02/02 10:54:51;;;;;;;89.67;83.63;;;10.10;99.90;;;;;;4392767;32;20162;-62
2022/02/02 10:57:47;;;;;;;95.50;88.40;;;10.00;99.90;;;;;;4391696;32;20132;-64
2022/02/02 11:00:28;;;;;;;89.70;83.80;;;10.10;99.90;;;;;;4392989;32;20174;-63
2022/02/02 11:08:30;;;;;;;93.77;87.53;;;10.00;99.90;;;;;;4392916;32;20154;-63
2022/02/02 11:10:59;;;;;;;92.93;86.10;;;10.30;99.90;;;;;;4393798;32;20202;-63
2022/02/02 11:13:26;;;;;;;89.23;83.23;;;10.50;99.90;;;;;;4406676;32;20143;-63
2022/02/02 11:15:56;;;;;;;97.03;90.93;;;10.60;99.90;;;;;;4393753;32;20159;-62
2022/02/02 11:18:28;;;;;;;89.77;84.40;;;10.40;99.90;;;;;;4406263;32;20560;-65
2022/02/02 11:21:05;;;;;;;101.07;94.03;;;10.50;99.90;;;;;;4403367;32;20571;-66
2022/02/02 11:23:45;;;;;;;91.40;85.00;;;10.60;99.90;;;;;;4391001;32;20152;-63
2022/02/02 11:26:13;;;;;;;91.23;84.57;;;10.60;99.90;;;;;;4391263;32;20140;-62
2022/02/02 11:28:40;;;;;;;98.93;93.03;;;10.80;99.90;;;;;;4390720;32;20152;-63
2022/02/02 11:31:16;;;;;;;110.67;103.73;;;10.80;99.90;;;;;;4378595;32;20226;-66
2022/02/02 11:33:50;;;;;;;96.93;90.73;;;10.90;99.90;;;;;;4391176;32;20132;-67
2022/02/02 11:36:25;;;;;;;84.27;79.40;;;11.10;99.90;;;;;;4390556;32;20167;-64
2022/02/02 11:38:58;;;;;;;82.10;76.47;;;11.10;99.90;;;;;;4392569;32;20210;-65
2022/02/02 11:44:25;;;;;;;76.40;71.63;;;11.20;99.90;;;;;;4390931;32;20505;-62
2022/02/02 11:47:05;;;;;;;54.70;50.70;;;11.00;99.90;;;;;;4390669;32;20455;-65
2022/02/02 11:49:48;;;;;;;69.10;62.93;;;10.60;99.90;;;;;;4390630;32;20159;-63
2022/02/02 11:52:35;;;;;;;68.43;63.03;;;10.50;99.90;;;;;;4394895;32;20218;-63
2022/02/02 11:55:03;;;;;;;66.97;62.17;;;10.30;99.90;;;;;;4406317;32;20185;-62
2022/02/02 11:57:52;;;;;;;70.43;65.27;;;10.20;99.90;;;;;;4405743;32;20132;-63
2022/02/02 12:00:31;;;;;;;68.77;64.10;;;10.00;99.90;;;;;;4405812;32;20482;-62
2022/02/02 12:06:20;;;;;;;72.27;67.17;;;10.00;99.90;;;;;;4358830;32;20158;-65
2022/02/02 12:08:57;;;;;;;61.17;56.67;;;10.10;99.90;;;;;;4358520;33;20577;-63
2022/02/02 12:47:10;;;;;;;55.93;52.10;;;10.00;99.90;;;;;;4418160;32;20165;-62
2022/02/02 12:49:47;;;;;;;58.73;53.63;;;10.00;99.90;;;;;;4416347;32;20175;-63
2022/02/02 12:58:17;;;;;;;57.60;54.10;;;9.90;99.90;;;;;;4328895;33;21280;-64
2022/02/02 13:01:07;;;;;;;53.43;49.20;;;9.90;99.90;;;;;;4337920;33;20147;-61
2022/02/02 13:03:35;;;;;;;53.73;49.97;;;9.80;99.90;;;;;;4331392;33;20595;-62
2022/02/02 13:06:04;;;;;;;54.23;50.07;;;9.80;99.90;;;;;;4342196;33;20213;-63
2022/02/02 13:08:34;;;;;;;49.47;45.43;;;9.80;99.90;;;;;;4341070;33;20210;-62
2022/02/02 13:11:09;;;;;;;49.50;45.47;;;9.70;99.90;;;;;;4341524;33;20237;-61
2022/02/02 13:13:43;;;;;;;47.10;43.17;;;9.70;99.90;;;;;;4338464;33;20656;-61
2022/02/02 13:16:14;;;;;;;45.83;42.23;;;9.70;99.90;;;;;;4335309;33;20652;-63
2022/02/02 13:18:44;;;;;;;41.83;38.07;;;9.60;99.90;;;;;;4329042;33;20651;-62
2022/02/02 13:21:16;;;;;;;45.53;41.33;;;9.60;99.90;;;;;;4346414;32;20194;-62
2022/02/02 13:23:54;;;;;;;44.50;40.70;;;9.60;99.90;;;;;;4358878;32;20577;-62
2022/02/02 13:26:28;;;;;;;37.83;34.63;;;9.60;99.90;;;;;;4370611;32;20188;-62
2022/02/02 13:29:08;;;;;;;48.57;44.83;;;9.60;99.90;;;;;;4370437;32;20152;-62
2022/02/02 13:31:47;;;;;;;47.67;43.67;;;9.50;99.90;;;;;;4370665;32;20160;-61
2022/02/02 13:34:22;;;;;;;43.47;39.87;;;9.50;99.90;;;;;;4383783;32;20181;-62
2022/02/02 13:37:17;;;;;;;51.47;47.60;;;9.50;99.90;;;;;;4418982;32;20159;-62
2022/02/02 13:43:09;;;;;;;45.90;41.87;;;9.30;99.90;;;;;;4409013;32;20536;-62
2022/02/02 13:48:57;;;;;;;49.60;45.60;;;9.40;99.90;;;;;;4422846;32;20178;-64
2022/02/02 13:57:13;;;;;;;46.83;43.13;;;9.40;99.90;;;;;;4407795;32;20166;-66
2022/02/02 14:08:57;;;;;;;46.83;43.43;;;9.20;99.90;;;;;;4422667;32;20187;-62
2022/02/02 14:11:12;;;;;;;50.57;46.40;;;9.20;99.90;;;;;;4424169;32;20225;-62
2022/02/02 14:33:02;;;;;;;46.77;43.97;;;9.50;99.90;;;;;;4419306;32;20176;-63
2022/02/02 14:35:34;;;;;;;52.83;48.97;;;9.50;99.90;;;;;;4421912;32;20157;-63
2022/02/02 14:38:04;;;;;;;49.50;45.67;;;9.60;99.90;;;;;;4418598;32;20248;-66
2022/02/02 14:40:58;;;;;;;51.43;47.70;;;9.60;99.90;;;;;;4406529;32;20208;-68
2022/02/02 14:43:31;;;;;;;45.93;42.50;;;9.60;99.90;;;;;;4409721;32;20158;-62
2022/02/02 14:46:01;;;;;;;48.67;45.70;;;9.70;99.90;;;;;;4405714;32;20140;-64
2022/02/02 14:48:32;;;;;;;52.43;48.80;;;9.70;99.90;;;;;;4409487;32;20463;-66
2022/02/02 14:51:07;;;;;;;58.43;53.80;;;9.70;99.90;;;;;;4405695;32;20166;-64
2022/02/02 14:53:41;;;;;;;51.80;48.10;;;9.70;99.90;;;;;;4411917;32;20144;-63
2022/02/02 14:56:32;;;;;;;53.23;48.87;;;9.70;99.90;;;;;;4404873;32;20204;-65
2022/02/02 15:24:10;;;;;;;59.60;55.10;;;9.30;99.90;;;;;;4355383;32;20351;-62
2022/02/02 15:29:25;;;;;;;53.73;49.93;;;9.20;99.90;;;;;;4352506;32;20182;-63
2022/02/02 15:31:52;;;;;;;58.07;53.77;;;9.10;99.90;;;;;;4351131;32;20302;-62
2022/02/02 15:34:28;;;;;;;57.03;52.70;;;9.20;99.90;;;;;;4355373;33;20148;-66
2022/02/02 15:39:50;;;;;;;58.73;54.40;;;9.10;99.90;;;;;;4363216;32;20510;-65
2022/02/02 15:42:32;;;;;;;58.30;54.27;;;9.10;99.90;;;;;;4414234;32;20193;-64
2022/02/02 15:59:10;;;;;;;65.63;61.67;;;8.70;99.90;;;;;;4327635;33;20561;-63
2022/02/02 16:04:33;;;;;;;57.67;53.90;;;8.50;99.90;;;;;;4327539;33;20546;-64
2022/02/02 16:07:04;;;;;;;59.63;55.40;;;8.60;99.90;;;;;;4327023;33;20599;-63
2022/02/02 16:09:40;;;;;;;62.27;57.57;;;8.70;99.90;;;;;;4326968;33;20412;-63
2022/02/02 16:12:15;;;;;;;62.03;57.47;;;8.70;99.90;;;;;;4327668;33;20176;-65
2022/02/02 16:14:45;;;;;;;60.70;56.40;;;8.70;99.90;;;;;;4327246;33;20628;-62
2022/02/02 16:17:35;;;;;;;60.07;55.70;;;8.70;99.90;;;;;;4327385;33;20155;-63
2022/02/02 16:36:38;;;;;;;61.73;57.90;;;9.10;99.90;;;;;;4411785;32;20188;-64
2022/02/02 16:39:10;;;;;;;56.27;51.97;;;9.10;99.90;;;;;;4415695;32;20161;-62
2022/02/02 16:44:24;;;;;;;57.70;53.37;;;9.10;99.90;;;;;;4414211;32;20209;-66
2022/02/02 16:46:53;;;;;;;54.23;50.10;;;9.10;99.90;;;;;;4412039;32;20526;-64
2022/02/02 16:49:44;;;;;;;52.10;48.20;;;9.20;99.90;;;;;;4416413;32;20135;-63
2022/02/02 16:55:29;;;;;;;61.20;57.47;;;9.20;99.90;;;;;;4413300;32;20168;-67
2022/02/02 16:58:05;;;;;;;60.70;55.93;;;9.10;99.90;;;;;;4408078;32;20225;-66
2022/02/02 17:31:12;;;;;;;60.70;57.23;;;9.20;99.90;;;;;;4295362;33;20208;-63
2022/02/02 17:33:46;;;;;;;54.80;51.80;;;9.30;99.90;;;;;;4294034;33;20185;-64
2022/02/02 17:36:22;;;;;;;61.03;57.57;;;9.20;99.90;;;;;;4291266;33;20172;-64
2022/02/02 17:38:54;;;;;;;61.37;57.53;;;9.20;99.90;;;;;;4310455;33;20167;-64
2022/02/02 17:44:17;;;;;;;53.37;50.13;;;9.10;99.90;;;;;;4348757;32;20231;-63
2022/02/02 18:12:30;;;;;;;48.20;45.67;;;9.20;99.90;;;;;;4365199;32;20635;-63
2022/02/02 18:20:40;;;;;;;54.50;51.07;;;9.20;99.90;;;;;;4318877;33;20620;-65
2022/02/02 18:23:19;;;;;;;64.87;60.70;;;9.40;99.90;;;;;;4330134;33;20224;-63
2022/02/02 18:25:53;;;;;;;50.97;47.97;;;9.20;99.90;;;;;;4329753;33;20236;-64
2022/02/02 18:28:27;;;;;;;53.70;50.70;;;9.10;99.90;;;;;;4330762;33;20610;-62
2022/02/02 18:30:58;;;;;;;56.83;53.00;;;9.00;99.90;;;;;;4330269;33;20188;-63
2022/02/02 18:33:37;;;;;;;57.07;53.60;;;9.00;99.90;;;;;;4331284;33;20172;-61
2022/02/02 18:36:19;;;;;;;60.77;57.00;;;9.00;99.90;;;;;;4331267;33;20175;-62
2022/02/02 18:45:03;;;;;;;66.37;62.20;;;9.10;99.90;;;;;;4286479;33;20216;-65
2022/02/02 18:47:40;;;;;;;64.33;60.20;;;9.00;99.90;;;;;;4292768;33;20645;-64
2022/02/02 18:50:21;;;;;;;66.27;61.70;;;9.00;99.90;;;;;;4318264;33;20147;-64
2022/02/02 18:55:57;;;;;;;58.87;55.23;;;9.00;99.90;;;;;;4324468;33;20161;-61
2022/02/02 18:58:33;;;;;;;62.53;58.63;;;9.00;99.90;;;;;;4322169;33;20246;-65
2022/02/02 19:01:13;;;;;;;56.90;53.17;;;9.00;99.90;;;;;;4321464;33;20566;-63
2022/02/02 19:37:38;;;;;;;72.50;67.97;;;8.90;99.90;;;;;;4383906;32;20249;-65
2022/02/02 19:40:15;;;;;;;74.47;69.77;;;8.90;99.90;;;;;;4382111;32;20192;-67
2022/02/02 19:56:45;;;;;;;80.00;74.40;;;8.90;99.90;;;;;;4380379;32;20658;-65
2022/02/02 20:02:15;;;;;;;85.33;78.83;;;8.90;99.90;;;;;;4406208;32;20250;-65
2022/02/02 20:04:53;;;;;;;77.90;71.73;;;9.00;99.90;;;;;;4406029;32;20199;-67
2022/02/02 20:07:44;;;;;;;85.70;79.47;;;8.90;99.90;;;;;;4404049;32;20197;-66
2022/02/02 20:12:53;;;;;;;81.27;75.23;;;8.90;99.90;;;;;;4428128;32;20305;-62
2022/02/02 20:15:21;;;;;;;82.70;76.33;;;9.00;99.90;;;;;;4428364;32;20515;-62
2022/02/02 20:17:56;;;;;;;82.37;76.20;;;9.00;99.90;;;;;;4430188;32;20606;-64
2022/02/02 20:20:25;;;;;;;83.93;76.80;;;9.00;99.90;;;;;;4422901;32;20151;-62
2022/02/02 20:22:52;;;;;;;83.37;76.20;;;9.00;99.90;;;;;;4419783;32;20207;-65
2022/02/02 20:25:20;;;;;;;83.57;76.93;;;9.00;99.90;;;;;;4417645;32;20155;-63
2022/02/02 20:27:53;;;;;;;85.60;78.10;;;9.00;99.90;;;;;;4419273;32;20192;-62
2022/02/02 20:30:22;;;;;;;91.80;84.70;;;9.00;99.90;;;;;;4413926;32;20155;-63
2022/02/02 20:32:48;;;;;;;88.30;81.10;;;9.00;99.90;;;;;;4416095;32;20179;-64
2022/02/02 20:35:18;;;;;;;97.00;89.20;;;9.00;99.90;;;;;;4418410;32;20247;-64
2022/02/02 20:37:48;;;;;;;93.97;85.83;;;9.00;99.90;;;;;;4420568;32;20171;-65
2022/02/02 20:40:15;;;;;;;103.97;96.27;;;9.00;99.90;;;;;;4417471;32;20211;-65
2022/02/02 20:42:53;;;;;;;107.53;99.03;;;9.00;99.90;;;;;;4419648;32;20606;-62
2022/02/02 21:05:08;;;;;;;112.80;104.43;;;9.00;99.90;;;;;;4418034;32;21374;-65
2022/02/02 21:07:54;;;;;;;117.80;108.97;;;9.00;99.90;;;;;;4414167;32;20240;-65
2022/02/02 21:10:25;;;;;;;106.07;97.73;;;9.00;99.90;;;;;;4411673;32;20217;-65
2022/02/02 21:15:38;;;;;;;100.70;92.90;;;9.00;99.90;;;;;;4418660;32;20181;-67
2022/02/02 21:18:12;;;;;;;139.60;129.80;;;9.00;99.90;;;;;;4418672;32;20599;-67
2022/02/02 21:20:47;;;;;;;119.57;110.87;;;9.00;99.90;;;;;;4418252;32;20211;-65
2022/02/02 21:23:30;;;;;;;124.27;115.23;;;9.00;99.90;;;;;;4421235;32;20167;-63